sensor_id;sensor_type;location;lat;lon;timestamp;P1;durP1;ratioP1;P2;durP2;ratioP2
11230;SDS011;5672;51.060;3.734;2023-07-31T00:02:18;16.27;;;7.30;;
11230;SDS011;5672;51.060;3.734;2023-07-31T00:04:44;17.67;;;7.07;;
11230;SDS011;5672;51.060;3.734;2023-07-31T00:07:11;13.20;;;7.03;;
11230;SDS011;5672;51.060;3.734;2023-07-31T00:09:37;19.97;;;6.57;;
11230;SDS011;5672;51.060;3.734;2023-07-31T00:12:03;18.23;;;6.63;;
11230;SDS011;5672;51.060;3.734;2023-07-31T00:14:29;15.60;;;6.60;;
11230;SDS011;5672;51.060;3.734;2023-07-31T00:16:54;19.80;;;6.57;;
11230;SDS011;5672;51.060;3.734;2023-07-31T00:19:20;13.03;;;6.27;;
11230;SDS011;5672;51.060;3.734;2023-07-31T00:21:46;15.97;;;6.20;;
11230;SDS011;5672;51.060;3.734;2023-07-31T00:24:12;14.00;;;5.60;;
11230;SDS011;5672;51.060;3.734;2023-07-31T00:26:38;18.07;;;6.47;;
11230;SDS011;5672;51.060;3.734;2023-07-31T00:29:04;16.07;;;6.33;;
11230;SDS011;5672;51.060;3.734;2023-07-31T00:31:30;18.73;;;7.40;;
11230;SDS011;5672;51.060;3.734;2023-07-31T00:33:56;19.30;;;7.07;;
11230;SDS011;5672;51.060;3.734;2023-07-31T00:36:22;12.50;;;6.20;;
11230;SDS011;5672;51.060;3.734;2023-07-31T00:38:48;17.93;;;6.60;;
11230;SDS011;5672;51.060;3.734;2023-07-31T00:41:14;15.57;;;6.33;;
11230;SDS011;5672;51.060;3.734;2023-07-31T00:43:40;17.50;;;6.40;;
11230;SDS011;5672;51.060;3.734;2023-07-31T00:46:06;17.70;;;6.73;;
11230;SDS011;5672;51.060;3.734;2023-07-31T00:48:33;13.20;;;6.20;;
11230;SDS011;5672;51.060;3.734;2023-07-31T00:50:59;14.23;;;5.93;;
11230;SDS011;5672;51.060;3.734;2023-07-31T00:53:26;13.40;;;6.17;;
11230;SDS011;5672;51.060;3.734;2023-07-31T00:55:53;18.43;;;6.43;;
11230;SDS011;5672;51.060;3.734;2023-07-31T00:58:19;14.90;;;5.90;;
11230;SDS011;5672;51.060;3.734;2023-07-31T01:00:45;13.73;;;5.97;;
11230;SDS011;5672;51.060;3.734;2023-07-31T01:03:11;18.40;;;6.70;;
11230;SDS011;5672;51.060;3.734;2023-07-31T01:11:02;502.10;;;450.27;;
11230;SDS011;5672;51.060;3.734;2023-07-31T01:13:30;551.60;;;500.27;;
11230;SDS011;5672;51.060;3.734;2023-07-31T01:15:56;92.90;;;81.03;;
11230;SDS011;5672;51.060;3.734;2023-07-31T01:18:22;197.83;;;182.83;;
11230;SDS011;5672;51.060;3.734;2023-07-31T01:20:50;718.00;;;645.40;;
11230;SDS011;5672;51.060;3.734;2023-07-31T01:23:28;406.90;;;366.10;;
11230;SDS011;5672;51.060;3.734;2023-07-31T01:28:38;652.43;;;584.80;;
11230;SDS011;5672;51.060;3.734;2023-07-31T01:31:07;10.83;;;6.57;;
11230;SDS011;5672;51.060;3.734;2023-07-31T01:33:33;13.87;;;5.63;;
11230;SDS011;5672;51.060;3.734;2023-07-31T01:36:00;14.40;;;6.00;;
11230;SDS011;5672;51.060;3.734;2023-07-31T01:38:26;12.37;;;5.87;;
11230;SDS011;5672;51.060;3.734;2023-07-31T01:40:52;20.80;;;6.17;;
11230;SDS011;5672;51.060;3.734;2023-07-31T01:43:19;15.90;;;5.87;;
11230;SDS011;5672;51.060;3.734;2023-07-31T01:45:45;13.37;;;5.50;;
11230;SDS011;5672;51.060;3.734;2023-07-31T01:48:10;16.67;;;6.07;;
11230;SDS011;5672;51.060;3.734;2023-07-31T01:50:36;14.17;;;5.20;;
11230;SDS011;5672;51.060;3.734;2023-07-31T01:53:02;17.30;;;5.97;;
11230;SDS011;5672;51.060;3.734;2023-07-31T01:55:28;10.17;;;4.90;;
11230;SDS011;5672;51.060;3.734;2023-07-31T01:57:54;15.87;;;5.57;;
11230;SDS011;5672;51.060;3.734;2023-07-31T02:00:20;8.50;;;4.77;;
11230;SDS011;5672;51.060;3.734;2023-07-31T02:02:46;16.47;;;5.60;;
11230;SDS011;5672;51.060;3.734;2023-07-31T02:05:12;11.17;;;5.40;;
11230;SDS011;5672;51.060;3.734;2023-07-31T02:07:38;15.20;;;5.93;;
11230;SDS011;5672;51.060;3.734;2023-07-31T02:10:04;15.07;;;5.47;;
11230;SDS011;5672;51.060;3.734;2023-07-31T02:12:30;14.07;;;5.50;;
11230;SDS011;5672;51.060;3.734;2023-07-31T02:14:57;11.37;;;5.23;;
11230;SDS011;5672;51.060;3.734;2023-07-31T02:17:23;11.37;;;5.43;;
11230;SDS011;5672;51.060;3.734;2023-07-31T02:19:48;17.37;;;5.23;;
11230;SDS011;5672;51.060;3.734;2023-07-31T02:22:14;11.07;;;5.27;;
11230;SDS011;5672;51.060;3.734;2023-07-31T02:24:40;12.47;;;5.30;;
11230;SDS011;5672;51.060;3.734;2023-07-31T02:27:06;11.33;;;4.90;;
11230;SDS011;5672;51.060;3.734;2023-07-31T02:29:32;14.97;;;5.47;;
11230;SDS011;5672;51.060;3.734;2023-07-31T02:31:58;16.43;;;5.67;;
11230;SDS011;5672;51.060;3.734;2023-07-31T02:34:24;14.13;;;5.40;;
11230;SDS011;5672;51.060;3.734;2023-07-31T02:36:50;10.43;;;5.03;;
11230;SDS011;5672;51.060;3.734;2023-07-31T02:39:16;7.67;;;4.50;;
11230;SDS011;5672;51.060;3.734;2023-07-31T02:41:42;10.70;;;5.07;;
11230;SDS011;5672;51.060;3.734;2023-07-31T02:44:08;12.67;;;4.83;;
11230;SDS011;5672;51.060;3.734;2023-07-31T02:46:35;14.10;;;5.30;;
11230;SDS011;5672;51.060;3.734;2023-07-31T02:49:01;13.60;;;5.03;;
11230;SDS011;5672;51.060;3.734;2023-07-31T02:51:27;16.47;;;5.27;;
11230;SDS011;5672;51.060;3.734;2023-07-31T02:53:53;12.07;;;4.60;;
11230;SDS011;5672;51.060;3.734;2023-07-31T02:56:19;11.33;;;4.97;;
11230;SDS011;5672;51.060;3.734;2023-07-31T02:58:45;17.23;;;4.80;;
11230;SDS011;5672;51.060;3.734;2023-07-31T03:01:11;16.20;;;5.50;;
11230;SDS011;5672;51.060;3.734;2023-07-31T03:03:36;11.80;;;4.77;;
11230;SDS011;5672;51.060;3.734;2023-07-31T03:06:02;11.50;;;4.93;;
11230;SDS011;5672;51.060;3.734;2023-07-31T03:08:28;14.10;;;5.80;;
11230;SDS011;5672;51.060;3.734;2023-07-31T03:10:54;14.23;;;5.73;;
11230;SDS011;5672;51.060;3.734;2023-07-31T03:13:22;13.27;;;4.80;;
11230;SDS011;5672;51.060;3.734;2023-07-31T03:15:48;12.00;;;4.97;;
11230;SDS011;5672;51.060;3.734;2023-07-31T03:18:14;14.93;;;5.10;;
11230;SDS011;5672;51.060;3.734;2023-07-31T03:20:43;11.90;;;5.00;;
11230;SDS011;5672;51.060;3.734;2023-07-31T03:23:09;12.23;;;5.50;;
11230;SDS011;5672;51.060;3.734;2023-07-31T03:25:35;13.47;;;4.90;;
11230;SDS011;5672;51.060;3.734;2023-07-31T03:28:01;13.83;;;5.60;;
11230;SDS011;5672;51.060;3.734;2023-07-31T03:30:27;11.37;;;6.03;;
11230;SDS011;5672;51.060;3.734;2023-07-31T03:32:53;12.40;;;5.00;;
11230;SDS011;5672;51.060;3.734;2023-07-31T03:35:19;13.20;;;5.80;;
11230;SDS011;5672;51.060;3.734;2023-07-31T03:37:45;12.70;;;5.40;;
11230;SDS011;5672;51.060;3.734;2023-07-31T03:40:11;10.37;;;5.30;;
11230;SDS011;5672;51.060;3.734;2023-07-31T03:42:37;10.83;;;5.73;;
11230;SDS011;5672;51.060;3.734;2023-07-31T03:45:03;12.73;;;5.73;;
11230;SDS011;5672;51.060;3.734;2023-07-31T03:47:29;11.20;;;5.77;;
11230;SDS011;5672;51.060;3.734;2023-07-31T03:49:55;11.07;;;5.87;;
11230;SDS011;5672;51.060;3.734;2023-07-31T03:52:21;12.70;;;5.87;;
11230;SDS011;5672;51.060;3.734;2023-07-31T03:54:47;14.70;;;6.57;;
11230;SDS011;5672;51.060;3.734;2023-07-31T03:57:13;14.17;;;5.87;;
11230;SDS011;5672;51.060;3.734;2023-07-31T03:59:38;13.30;;;6.93;;
11230;SDS011;5672;51.060;3.734;2023-07-31T04:02:04;11.93;;;5.97;;
11230;SDS011;5672;51.060;3.734;2023-07-31T04:04:30;16.93;;;6.40;;
11230;SDS011;5672;51.060;3.734;2023-07-31T04:06:56;12.17;;;6.73;;
11230;SDS011;5672;51.060;3.734;2023-07-31T04:09:22;13.97;;;6.37;;
11230;SDS011;5672;51.060;3.734;2023-07-31T04:11:48;16.67;;;6.93;;
11230;SDS011;5672;51.060;3.734;2023-07-31T04:14:14;11.60;;;6.17;;
11230;SDS011;5672;51.060;3.734;2023-07-31T04:16:40;13.63;;;6.80;;
11230;SDS011;5672;51.060;3.734;2023-07-31T04:19:06;17.03;;;6.53;;
11230;SDS011;5672;51.060;3.734;2023-07-31T04:21:32;11.50;;;6.07;;
11230;SDS011;5672;51.060;3.734;2023-07-31T04:23:58;11.50;;;6.37;;
11230;SDS011;5672;51.060;3.734;2023-07-31T04:26:24;11.37;;;5.63;;
11230;SDS011;5672;51.060;3.734;2023-07-31T04:28:50;12.13;;;5.63;;
11230;SDS011;5672;51.060;3.734;2023-07-31T04:31:16;9.17;;;5.63;;
11230;SDS011;5672;51.060;3.734;2023-07-31T04:33:41;10.37;;;5.43;;
11230;SDS011;5672;51.060;3.734;2023-07-31T04:36:07;14.53;;;6.00;;
11230;SDS011;5672;51.060;3.734;2023-07-31T04:38:33;8.20;;;5.40;;
11230;SDS011;5672;51.060;3.734;2023-07-31T04:40:59;11.33;;;6.00;;
11230;SDS011;5672;51.060;3.734;2023-07-31T04:43:25;9.20;;;5.70;;
11230;SDS011;5672;51.060;3.734;2023-07-31T04:45:51;11.10;;;5.20;;
11230;SDS011;5672;51.060;3.734;2023-07-31T04:48:19;12.57;;;5.43;;
11230;SDS011;5672;51.060;3.734;2023-07-31T04:50:44;10.20;;;5.47;;
11230;SDS011;5672;51.060;3.734;2023-07-31T04:53:10;8.80;;;5.07;;
11230;SDS011;5672;51.060;3.734;2023-07-31T04:55:36;11.00;;;5.20;;
11230;SDS011;5672;51.060;3.734;2023-07-31T04:58:02;12.10;;;5.30;;
11230;SDS011;5672;51.060;3.734;2023-07-31T05:00:28;9.67;;;5.07;;
11230;SDS011;5672;51.060;3.734;2023-07-31T05:02:54;10.83;;;5.30;;
11230;SDS011;5672;51.060;3.734;2023-07-31T05:05:20;11.60;;;5.00;;
11230;SDS011;5672;51.060;3.734;2023-07-31T05:07:46;6.40;;;4.67;;
11230;SDS011;5672;51.060;3.734;2023-07-31T05:10:12;8.70;;;5.00;;
11230;SDS011;5672;51.060;3.734;2023-07-31T05:12:38;11.97;;;5.93;;
11230;SDS011;5672;51.060;3.734;2023-07-31T05:15:04;6.00;;;4.80;;
11230;SDS011;5672;51.060;3.734;2023-07-31T05:17:30;8.10;;;5.17;;
11230;SDS011;5672;51.060;3.734;2023-07-31T05:19:56;8.33;;;5.60;;
11230;SDS011;5672;51.060;3.734;2023-07-31T05:22:23;8.53;;;5.50;;
11230;SDS011;5672;51.060;3.734;2023-07-31T05:24:49;10.33;;;5.63;;
11230;SDS011;5672;51.060;3.734;2023-07-31T05:27:14;8.53;;;5.83;;
11230;SDS011;5672;51.060;3.734;2023-07-31T05:29:43;7.87;;;5.30;;
11230;SDS011;5672;51.060;3.734;2023-07-31T05:32:09;7.43;;;5.40;;
11230;SDS011;5672;51.060;3.734;2023-07-31T05:34:35;7.77;;;5.67;;
11230;SDS011;5672;51.060;3.734;2023-07-31T05:37:01;7.83;;;5.30;;
11230;SDS011;5672;51.060;3.734;2023-07-31T05:39:27;11.93;;;6.17;;
11230;SDS011;5672;51.060;3.734;2023-07-31T05:41:53;11.73;;;5.40;;
11230;SDS011;5672;51.060;3.734;2023-07-31T05:44:19;8.47;;;6.20;;
11230;SDS011;5672;51.060;3.734;2023-07-31T05:46:45;10.23;;;6.17;;
11230;SDS011;5672;51.060;3.734;2023-07-31T05:49:11;8.03;;;5.53;;
11230;SDS011;5672;51.060;3.734;2023-07-31T05:51:36;7.67;;;5.37;;
11230;SDS011;5672;51.060;3.734;2023-07-31T05:54:02;6.23;;;5.63;;
11230;SDS011;5672;51.060;3.734;2023-07-31T05:56:28;9.10;;;5.60;;
11230;SDS011;5672;51.060;3.734;2023-07-31T05:58:54;12.53;;;6.20;;
11230;SDS011;5672;51.060;3.734;2023-07-31T06:01:22;10.27;;;5.67;;
11230;SDS011;5672;51.060;3.734;2023-07-31T06:03:48;5.57;;;4.97;;
11230;SDS011;5672;51.060;3.734;2023-07-31T06:06:14;7.77;;;5.67;;
11230;SDS011;5672;51.060;3.734;2023-07-31T06:08:39;11.90;;;5.87;;
11230;SDS011;5672;51.060;3.734;2023-07-31T06:11:06;6.57;;;5.80;;
11230;SDS011;5672;51.060;3.734;2023-07-31T06:13:34;9.30;;;5.67;;
11230;SDS011;5672;51.060;3.734;2023-07-31T06:16:00;12.70;;;5.53;;
11230;SDS011;5672;51.060;3.734;2023-07-31T06:18:30;13.90;;;6.17;;
11230;SDS011;5672;51.060;3.734;2023-07-31T06:20:55;11.33;;;5.37;;
11230;SDS011;5672;51.060;3.734;2023-07-31T06:23:21;11.53;;;5.20;;
11230;SDS011;5672;51.060;3.734;2023-07-31T06:25:47;16.10;;;6.50;;
11230;SDS011;5672;51.060;3.734;2023-07-31T06:28:13;9.97;;;5.97;;
11230;SDS011;5672;51.060;3.734;2023-07-31T06:30:39;8.80;;;5.70;;
11230;SDS011;5672;51.060;3.734;2023-07-31T06:33:05;11.17;;;5.63;;
11230;SDS011;5672;51.060;3.734;2023-07-31T06:35:31;12.00;;;5.90;;
11230;SDS011;5672;51.060;3.734;2023-07-31T06:37:57;10.90;;;5.47;;
11230;SDS011;5672;51.060;3.734;2023-07-31T06:40:23;10.77;;;6.00;;
11230;SDS011;5672;51.060;3.734;2023-07-31T06:42:49;10.83;;;6.03;;
11230;SDS011;5672;51.060;3.734;2023-07-31T06:45:15;9.50;;;5.63;;
11230;SDS011;5672;51.060;3.734;2023-07-31T06:47:41;11.67;;;5.70;;
11230;SDS011;5672;51.060;3.734;2023-07-31T06:50:08;11.37;;;5.20;;
11230;SDS011;5672;51.060;3.734;2023-07-31T06:52:34;12.17;;;5.50;;
11230;SDS011;5672;51.060;3.734;2023-07-31T06:55:04;10.33;;;5.07;;
11230;SDS011;5672;51.060;3.734;2023-07-31T06:57:30;6.07;;;5.33;;
11230;SDS011;5672;51.060;3.734;2023-07-31T06:59:56;11.40;;;5.60;;
11230;SDS011;5672;51.060;3.734;2023-07-31T07:02:22;9.07;;;5.77;;
11230;SDS011;5672;51.060;3.734;2023-07-31T07:04:48;10.40;;;5.30;;
11230;SDS011;5672;51.060;3.734;2023-07-31T07:07:14;10.20;;;6.40;;
11230;SDS011;5672;51.060;3.734;2023-07-31T07:09:40;15.73;;;6.10;;
11230;SDS011;5672;51.060;3.734;2023-07-31T07:12:06;12.87;;;6.60;;
11230;SDS011;5672;51.060;3.734;2023-07-31T07:14:32;11.33;;;6.40;;
11230;SDS011;5672;51.060;3.734;2023-07-31T07:16:58;8.33;;;5.57;;
11230;SDS011;5672;51.060;3.734;2023-07-31T07:19:24;9.00;;;6.43;;
11230;SDS011;5672;51.060;3.734;2023-07-31T07:21:50;10.83;;;6.03;;
11230;SDS011;5672;51.060;3.734;2023-07-31T07:24:16;10.23;;;6.60;;
11230;SDS011;5672;51.060;3.734;2023-07-31T07:26:42;13.57;;;6.43;;
11230;SDS011;5672;51.060;3.734;2023-07-31T07:29:08;7.50;;;6.13;;
11230;SDS011;5672;51.060;3.734;2023-07-31T07:31:35;12.77;;;6.63;;
11230;SDS011;5672;51.060;3.734;2023-07-31T07:34:01;9.73;;;5.87;;
11230;SDS011;5672;51.060;3.734;2023-07-31T07:36:27;8.53;;;5.37;;
11230;SDS011;5672;51.060;3.734;2023-07-31T07:38:53;7.80;;;5.70;;
11230;SDS011;5672;51.060;3.734;2023-07-31T07:41:19;7.63;;;4.97;;
11230;SDS011;5672;51.060;3.734;2023-07-31T07:43:45;8.93;;;4.80;;
11230;SDS011;5672;51.060;3.734;2023-07-31T07:46:11;7.43;;;5.17;;
11230;SDS011;5672;51.060;3.734;2023-07-31T07:48:37;9.73;;;4.33;;
11230;SDS011;5672;51.060;3.734;2023-07-31T07:51:03;7.77;;;4.50;;
11230;SDS011;5672;51.060;3.734;2023-07-31T07:53:29;5.10;;;4.40;;
11230;SDS011;5672;51.060;3.734;2023-07-31T07:55:55;5.97;;;4.33;;
11230;SDS011;5672;51.060;3.734;2023-07-31T07:58:21;7.33;;;4.33;;
11230;SDS011;5672;51.060;3.734;2023-07-31T08:00:48;6.13;;;4.17;;
11230;SDS011;5672;51.060;3.734;2023-07-31T08:03:14;4.97;;;3.80;;
11230;SDS011;5672;51.060;3.734;2023-07-31T08:05:41;4.73;;;3.73;;
11230;SDS011;5672;51.060;3.734;2023-07-31T08:08:07;5.17;;;4.60;;
11230;SDS011;5672;51.060;3.734;2023-07-31T08:10:33;7.10;;;5.17;;
11230;SDS011;5672;51.060;3.734;2023-07-31T08:12:59;6.80;;;4.90;;
11230;SDS011;5672;51.060;3.734;2023-07-31T08:15:25;8.93;;;6.03;;
11230;SDS011;5672;51.060;3.734;2023-07-31T08:17:51;12.73;;;9.60;;
11230;SDS011;5672;51.060;3.734;2023-07-31T08:20:17;8.70;;;7.90;;
11230;SDS011;5672;51.060;3.734;2023-07-31T08:22:43;8.77;;;5.40;;
11230;SDS011;5672;51.060;3.734;2023-07-31T08:25:09;7.77;;;4.80;;
11230;SDS011;5672;51.060;3.734;2023-07-31T08:27:35;8.50;;;4.53;;
11230;SDS011;5672;51.060;3.734;2023-07-31T08:30:01;11.07;;;5.03;;
11230;SDS011;5672;51.060;3.734;2023-07-31T08:32:27;8.30;;;5.40;;
11230;SDS011;5672;51.060;3.734;2023-07-31T08:34:53;11.70;;;6.30;;
11230;SDS011;5672;51.060;3.734;2023-07-31T08:37:19;6.87;;;5.07;;
11230;SDS011;5672;51.060;3.734;2023-07-31T08:39:45;9.90;;;6.50;;
11230;SDS011;5672;51.060;3.734;2023-07-31T08:42:11;11.67;;;7.57;;
11230;SDS011;5672;51.060;3.734;2023-07-31T08:44:37;10.17;;;6.50;;
11230;SDS011;5672;51.060;3.734;2023-07-31T08:47:04;8.57;;;4.90;;
11230;SDS011;5672;51.060;3.734;2023-07-31T08:49:30;6.13;;;4.30;;
11230;SDS011;5672;51.060;3.734;2023-07-31T08:51:56;11.63;;;6.13;;
11230;SDS011;5672;51.060;3.734;2023-07-31T08:54:23;6.43;;;5.30;;
11230;SDS011;5672;51.060;3.734;2023-07-31T08:56:49;6.20;;;4.87;;
11230;SDS011;5672;51.060;3.734;2023-07-31T08:59:15;5.97;;;4.37;;
11230;SDS011;5672;51.060;3.734;2023-07-31T09:01:43;6.63;;;4.03;;
11230;SDS011;5672;51.060;3.734;2023-07-31T09:04:09;5.10;;;4.10;;
11230;SDS011;5672;51.060;3.734;2023-07-31T09:06:36;5.43;;;4.43;;
11230;SDS011;5672;51.060;3.734;2023-07-31T09:09:03;6.03;;;3.93;;
11230;SDS011;5672;51.060;3.734;2023-07-31T09:11:29;7.47;;;4.03;;
11230;SDS011;5672;51.060;3.734;2023-07-31T09:13:56;4.40;;;4.00;;
11230;SDS011;5672;51.060;3.734;2023-07-31T09:16:29;5.77;;;4.03;;
11230;SDS011;5672;51.060;3.734;2023-07-31T09:18:58;4.67;;;3.70;;
11230;SDS011;5672;51.060;3.734;2023-07-31T09:21:26;3.67;;;3.40;;
11230;SDS011;5672;51.060;3.734;2023-07-31T09:23:53;5.07;;;3.97;;
11230;SDS011;5672;51.060;3.734;2023-07-31T09:26:29;7.17;;;4.00;;
11230;SDS011;5672;51.060;3.734;2023-07-31T09:28:55;4.67;;;3.50;;
11230;SDS011;5672;51.060;3.734;2023-07-31T09:31:40;4.80;;;3.30;;
11230;SDS011;5672;51.060;3.734;2023-07-31T09:34:06;4.07;;;3.50;;
11230;SDS011;5672;51.060;3.734;2023-07-31T09:36:32;4.60;;;3.40;;
11230;SDS011;5672;51.060;3.734;2023-07-31T09:39:02;6.80;;;3.90;;
11230;SDS011;5672;51.060;3.734;2023-07-31T09:41:29;3.90;;;3.53;;
11230;SDS011;5672;51.060;3.734;2023-07-31T09:43:55;6.30;;;4.33;;
11230;SDS011;5672;51.060;3.734;2023-07-31T09:46:21;5.83;;;3.50;;
11230;SDS011;5672;51.060;3.734;2023-07-31T09:48:47;7.07;;;4.10;;
11230;SDS011;5672;51.060;3.734;2023-07-31T09:51:13;4.40;;;4.00;;
11230;SDS011;5672;51.060;3.734;2023-07-31T09:53:39;4.83;;;3.90;;
11230;SDS011;5672;51.060;3.734;2023-07-31T09:56:05;3.83;;;3.53;;
11230;SDS011;5672;51.060;3.734;2023-07-31T09:58:31;6.67;;;4.43;;
11230;SDS011;5672;51.060;3.734;2023-07-31T10:00:58;6.40;;;4.00;;
11230;SDS011;5672;51.060;3.734;2023-07-31T10:03:25;4.83;;;4.13;;
11230;SDS011;5672;51.060;3.734;2023-07-31T10:05:52;6.80;;;4.33;;
11230;SDS011;5672;51.060;3.734;2023-07-31T10:08:19;4.83;;;4.10;;
11230;SDS011;5672;51.060;3.734;2023-07-31T10:10:47;7.40;;;4.27;;
11230;SDS011;5672;51.060;3.734;2023-07-31T10:13:13;10.03;;;5.57;;
11230;SDS011;5672;51.060;3.734;2023-07-31T10:15:39;9.80;;;8.10;;
11230;SDS011;5672;51.060;3.734;2023-07-31T10:18:07;275.13;;;102.97;;
11230;SDS011;5672;51.060;3.734;2023-07-31T10:20:34;227.23;;;92.13;;
11230;SDS011;5672;51.060;3.734;2023-07-31T10:23:00;42.53;;;21.17;;
11230;SDS011;5672;51.060;3.734;2023-07-31T10:25:27;17.70;;;10.73;;
11230;SDS011;5672;51.060;3.734;2023-07-31T10:27:53;13.27;;;7.93;;
11230;SDS011;5672;51.060;3.734;2023-07-31T10:30:20;13.17;;;7.47;;
11230;SDS011;5672;51.060;3.734;2023-07-31T10:32:47;13.70;;;8.30;;
11230;SDS011;5672;51.060;3.734;2023-07-31T10:35:15;14.73;;;8.17;;
11230;SDS011;5672;51.060;3.734;2023-07-31T10:37:41;16.40;;;8.57;;
11230;SDS011;5672;51.060;3.734;2023-07-31T10:40:13;13.10;;;7.70;;
11230;SDS011;5672;51.060;3.734;2023-07-31T10:42:46;13.57;;;7.50;;
11230;SDS011;5672;51.060;3.734;2023-07-31T10:45:13;10.17;;;6.57;;
11230;SDS011;5672;51.060;3.734;2023-07-31T10:47:43;11.03;;;6.93;;
11230;SDS011;5672;51.060;3.734;2023-07-31T10:50:12;7.40;;;5.80;;
11230;SDS011;5672;51.060;3.734;2023-07-31T10:52:38;8.83;;;6.03;;
11230;SDS011;5672;51.060;3.734;2023-07-31T10:57:49;8.33;;;5.53;;
11230;SDS011;5672;51.060;3.734;2023-07-31T11:03:01;10.53;;;7.87;;
11230;SDS011;5672;51.060;3.734;2023-07-31T11:10:38;6.33;;;5.23;;
11230;SDS011;5672;51.060;3.734;2023-07-31T11:13:04;9.67;;;6.20;;
11230;SDS011;5672;51.060;3.734;2023-07-31T11:15:30;8.27;;;5.80;;
11230;SDS011;5672;51.060;3.734;2023-07-31T11:17:56;8.40;;;6.33;;
11230;SDS011;5672;51.060;3.734;2023-07-31T11:20:29;6.33;;;5.50;;
11230;SDS011;5672;51.060;3.734;2023-07-31T11:22:57;10.17;;;5.70;;
11230;SDS011;5672;51.060;3.734;2023-07-31T11:25:23;11.53;;;6.77;;
11230;SDS011;5672;51.060;3.734;2023-07-31T11:27:49;18.23;;;11.73;;
11230;SDS011;5672;51.060;3.734;2023-07-31T11:30:18;11.47;;;8.10;;
11230;SDS011;5672;51.060;3.734;2023-07-31T11:32:45;7.57;;;6.00;;
11230;SDS011;5672;51.060;3.734;2023-07-31T11:35:14;6.20;;;5.60;;
11230;SDS011;5672;51.060;3.734;2023-07-31T11:37:41;7.63;;;4.83;;
11230;SDS011;5672;51.060;3.734;2023-07-31T11:40:07;7.37;;;5.07;;
11230;SDS011;5672;51.060;3.734;2023-07-31T11:42:34;7.43;;;5.23;;
11230;SDS011;5672;51.060;3.734;2023-07-31T11:45:06;7.50;;;4.67;;
11230;SDS011;5672;51.060;3.734;2023-07-31T11:47:33;6.40;;;5.40;;
11230;SDS011;5672;51.060;3.734;2023-07-31T11:50:00;7.90;;;4.57;;
11230;SDS011;5672;51.060;3.734;2023-07-31T11:52:26;5.53;;;4.87;;
11230;SDS011;5672;51.060;3.734;2023-07-31T11:54:53;9.33;;;5.23;;
11230;SDS011;5672;51.060;3.734;2023-07-31T11:57:19;6.07;;;5.43;;
11230;SDS011;5672;51.060;3.734;2023-07-31T11:59:45;5.90;;;4.80;;
11230;SDS011;5672;51.060;3.734;2023-07-31T12:02:11;6.37;;;5.10;;
11230;SDS011;5672;51.060;3.734;2023-07-31T12:04:37;8.30;;;5.00;;
11230;SDS011;5672;51.060;3.734;2023-07-31T12:07:03;5.63;;;5.03;;
11230;SDS011;5672;51.060;3.734;2023-07-31T12:09:29;7.30;;;4.93;;
11230;SDS011;5672;51.060;3.734;2023-07-31T12:11:55;5.70;;;4.80;;
11230;SDS011;5672;51.060;3.734;2023-07-31T12:14:25;11.93;;;5.23;;
11230;SDS011;5672;51.060;3.734;2023-07-31T12:17:01;7.23;;;5.03;;
11230;SDS011;5672;51.060;3.734;2023-07-31T12:19:29;7.30;;;4.47;;
11230;SDS011;5672;51.060;3.734;2023-07-31T12:21:56;8.70;;;4.80;;
11230;SDS011;5672;51.060;3.734;2023-07-31T12:24:22;9.53;;;5.23;;
11230;SDS011;5672;51.060;3.734;2023-07-31T12:26:48;8.90;;;4.73;;
11230;SDS011;5672;51.060;3.734;2023-07-31T12:29:14;11.93;;;8.53;;
11230;SDS011;5672;51.060;3.734;2023-07-31T12:31:40;11.70;;;9.10;;
11230;SDS011;5672;51.060;3.734;2023-07-31T12:34:16;7.77;;;6.13;;
11230;SDS011;5672;51.060;3.734;2023-07-31T12:36:43;10.10;;;6.37;;
11230;SDS011;5672;51.060;3.734;2023-07-31T12:39:09;9.63;;;5.97;;
11230;SDS011;5672;51.060;3.734;2023-07-31T12:41:35;7.63;;;6.13;;
11230;SDS011;5672;51.060;3.734;2023-07-31T12:44:01;9.23;;;6.33;;
11230;SDS011;5672;51.060;3.734;2023-07-31T12:46:28;7.73;;;6.33;;
11230;SDS011;5672;51.060;3.734;2023-07-31T12:48:54;10.33;;;6.33;;
11230;SDS011;5672;51.060;3.734;2023-07-31T12:51:20;7.77;;;5.83;;
11230;SDS011;5672;51.060;3.734;2023-07-31T12:53:46;6.27;;;5.67;;
11230;SDS011;5672;51.060;3.734;2023-07-31T12:56:12;7.37;;;5.50;;
11230;SDS011;5672;51.060;3.734;2023-07-31T12:58:37;5.60;;;5.10;;
11230;SDS011;5672;51.060;3.734;2023-07-31T13:01:03;7.90;;;5.10;;
11230;SDS011;5672;51.060;3.734;2023-07-31T13:03:31;6.67;;;4.40;;
11230;SDS011;5672;51.060;3.734;2023-07-31T13:05:57;8.30;;;4.97;;
11230;SDS011;5672;51.060;3.734;2023-07-31T13:08:22;6.70;;;4.50;;
11230;SDS011;5672;51.060;3.734;2023-07-31T13:10:48;6.20;;;4.77;;
11230;SDS011;5672;51.060;3.734;2023-07-31T13:13:14;5.50;;;4.37;;
11230;SDS011;5672;51.060;3.734;2023-07-31T13:15:41;4.73;;;4.20;;
11230;SDS011;5672;51.060;3.734;2023-07-31T13:18:06;4.60;;;4.20;;
11230;SDS011;5672;51.060;3.734;2023-07-31T13:20:32;4.33;;;3.97;;
11230;SDS011;5672;51.060;3.734;2023-07-31T13:22:58;6.67;;;4.47;;
11230;SDS011;5672;51.060;3.734;2023-07-31T13:25:24;3.87;;;3.57;;
11230;SDS011;5672;51.060;3.734;2023-07-31T13:27:50;5.10;;;3.67;;
11230;SDS011;5672;51.060;3.734;2023-07-31T13:30:16;3.40;;;3.10;;
11230;SDS011;5672;51.060;3.734;2023-07-31T13:32:42;3.67;;;3.30;;
11230;SDS011;5672;51.060;3.734;2023-07-31T13:35:08;3.30;;;3.03;;
11230;SDS011;5672;51.060;3.734;2023-07-31T13:37:36;3.37;;;2.93;;
11230;SDS011;5672;51.060;3.734;2023-07-31T13:40:02;3.73;;;3.13;;
11230;SDS011;5672;51.060;3.734;2023-07-31T13:42:29;3.83;;;2.87;;
11230;SDS011;5672;51.060;3.734;2023-07-31T13:44:56;3.27;;;3.03;;
11230;SDS011;5672;51.060;3.734;2023-07-31T13:47:22;4.50;;;3.13;;
11230;SDS011;5672;51.060;3.734;2023-07-31T13:49:48;3.23;;;2.77;;
11230;SDS011;5672;51.060;3.734;2023-07-31T13:52:14;2.83;;;2.63;;
11230;SDS011;5672;51.060;3.734;2023-07-31T13:54:40;3.63;;;2.70;;
11230;SDS011;5672;51.060;3.734;2023-07-31T13:57:07;2.90;;;2.70;;
11230;SDS011;5672;51.060;3.734;2023-07-31T13:59:36;5.97;;;3.23;;
11230;SDS011;5672;51.060;3.734;2023-07-31T14:02:02;4.30;;;3.27;;
11230;SDS011;5672;51.060;3.734;2023-07-31T14:04:28;4.70;;;3.43;;
11230;SDS011;5672;51.060;3.734;2023-07-31T14:06:55;5.53;;;3.90;;
11230;SDS011;5672;51.060;3.734;2023-07-31T14:09:21;4.63;;;3.63;;
11230;SDS011;5672;51.060;3.734;2023-07-31T14:11:47;4.23;;;3.73;;
11230;SDS011;5672;51.060;3.734;2023-07-31T14:14:13;5.37;;;3.73;;
11230;SDS011;5672;51.060;3.734;2023-07-31T14:16:39;7.90;;;4.37;;
11230;SDS011;5672;51.060;3.734;2023-07-31T14:19:05;7.87;;;4.30;;
11230;SDS011;5672;51.060;3.734;2023-07-31T14:21:32;5.60;;;4.63;;
11230;SDS011;5672;51.060;3.734;2023-07-31T14:23:58;7.03;;;4.90;;
11230;SDS011;5672;51.060;3.734;2023-07-31T14:26:24;7.57;;;4.70;;
11230;SDS011;5672;51.060;3.734;2023-07-31T14:28:50;9.33;;;5.07;;
11230;SDS011;5672;51.060;3.734;2023-07-31T14:31:16;7.80;;;4.90;;
11230;SDS011;5672;51.060;3.734;2023-07-31T14:33:42;6.83;;;5.20;;
11230;SDS011;5672;51.060;3.734;2023-07-31T14:36:08;7.57;;;5.03;;
11230;SDS011;5672;51.060;3.734;2023-07-31T14:38:34;8.13;;;5.30;;
11230;SDS011;5672;51.060;3.734;2023-07-31T14:41:00;8.37;;;4.93;;
11230;SDS011;5672;51.060;3.734;2023-07-31T14:43:26;5.53;;;4.60;;
11230;SDS011;5672;51.060;3.734;2023-07-31T14:45:52;9.47;;;4.70;;
11230;SDS011;5672;51.060;3.734;2023-07-31T14:48:20;7.70;;;4.83;;
11230;SDS011;5672;51.060;3.734;2023-07-31T14:50:46;4.60;;;4.20;;
11230;SDS011;5672;51.060;3.734;2023-07-31T14:53:12;5.77;;;4.57;;
11230;SDS011;5672;51.060;3.734;2023-07-31T14:55:38;5.57;;;4.27;;
11230;SDS011;5672;51.060;3.734;2023-07-31T14:58:04;5.57;;;4.90;;
11230;SDS011;5672;51.060;3.734;2023-07-31T15:00:31;8.53;;;4.00;;
11230;SDS011;5672;51.060;3.734;2023-07-31T15:02:56;5.30;;;4.20;;
11230;SDS011;5672;51.060;3.734;2023-07-31T15:05:22;4.57;;;3.57;;
11230;SDS011;5672;51.060;3.734;2023-07-31T15:07:48;4.80;;;3.53;;